sensor_id;sensor_type;location;lat;lon;timestamp;P1;durP1;ratioP1;P2;durP2;ratioP2
50363;SDS011;36272;59.400;17.982;2023-03-16T00:03:07;10.10;;;1.70;;
50363;SDS011;36272;59.400;17.982;2023-03-16T00:08:10;18.70;;;2.45;;
50363;SDS011;36272;59.400;17.982;2023-03-16T00:13:19;13.17;;;1.73;;
50363;SDS011;36272;59.400;17.982;2023-03-16T00:18:26;9.90;;;2.15;;
50363;SDS011;36272;59.400;17.982;2023-03-16T00:23:29;15.55;;;2.22;;
50363;SDS011;36272;59.400;17.982;2023-03-16T00:28:38;16.45;;;3.38;;
50363;SDS011;36272;59.400;17.982;2023-03-16T00:33:41;9.20;;;2.47;;
50363;SDS011;36272;59.400;17.982;2023-03-16T00:38:43;11.25;;;2.00;;
50363;SDS011;36272;59.400;17.982;2023-03-16T00:43:50;17.17;;;2.50;;
50363;SDS011;36272;59.400;17.982;2023-03-16T00:48:53;9.00;;;2.20;;
50363;SDS011;36272;59.400;17.982;2023-03-16T00:53:55;13.63;;;1.77;;
50363;SDS011;36272;59.400;17.982;2023-03-16T00:58:57;4.00;;;1.77;;
50363;SDS011;36272;59.400;17.982;2023-03-16T01:03:59;10.63;;;1.90;;
50363;SDS011;36272;59.400;17.982;2023-03-16T01:09:01;12.07;;;1.42;;
50363;SDS011;36272;59.400;17.982;2023-03-16T01:14:05;23.38;;;2.33;;
50363;SDS011;36272;59.400;17.982;2023-03-16T01:19:07;9.80;;;1.77;;
50363;SDS011;36272;59.400;17.982;2023-03-16T01:24:09;7.68;;;1.70;;
50363;SDS011;36272;59.400;17.982;2023-03-16T01:29:15;10.02;;;1.85;;
50363;SDS011;36272;59.400;17.982;2023-03-16T01:34:17;17.10;;;2.78;;
50363;SDS011;36272;59.400;17.982;2023-03-16T01:39:19;18.08;;;1.60;;
50363;SDS011;36272;59.400;17.982;2023-03-16T01:44:22;4.47;;;1.30;;
50363;SDS011;36272;59.400;17.982;2023-03-16T01:49:31;9.85;;;1.77;;
50363;SDS011;36272;59.400;17.982;2023-03-16T01:54:39;8.70;;;1.55;;
50363;SDS011;36272;59.400;17.982;2023-03-16T01:59:48;4.05;;;1.45;;
50363;SDS011;36272;59.400;17.982;2023-03-16T02:04:57;6.32;;;1.45;;
50363;SDS011;36272;59.400;17.982;2023-03-16T02:10:05;6.45;;;1.75;;
50363;SDS011;36272;59.400;17.982;2023-03-16T02:15:09;11.52;;;1.90;;
50363;SDS011;36272;59.400;17.982;2023-03-16T02:31:05;8.10;;;1.40;;
50363;SDS011;36272;59.400;17.982;2023-03-16T02:36:07;3.50;;;1.40;;
50363;SDS011;36272;59.400;17.982;2023-03-16T02:41:13;4.35;;;1.50;;
50363;SDS011;36272;59.400;17.982;2023-03-16T02:46:18;5.75;;;1.75;;
50363;SDS011;36272;59.400;17.982;2023-03-16T02:51:21;7.43;;;1.30;;
50363;SDS011;36272;59.400;17.982;2023-03-16T02:56:23;2.40;;;1.15;;
50363;SDS011;36272;59.400;17.982;2023-03-16T03:01:26;2.97;;;1.50;;
50363;SDS011;36272;59.400;17.982;2023-03-16T03:06:28;12.35;;;2.03;;
50363;SDS011;36272;59.400;17.982;2023-03-16T03:11:42;6.00;;;1.45;;
50363;SDS011;36272;59.400;17.982;2023-03-16T03:16:43;3.88;;;2.10;;
50363;SDS011;36272;59.400;17.982;2023-03-16T03:21:46;4.93;;;1.60;;
50363;SDS011;36272;59.400;17.982;2023-03-16T03:26:48;10.52;;;1.98;;
50363;SDS011;36272;59.400;17.982;2023-03-16T03:31:50;7.65;;;1.45;;
50363;SDS011;36272;59.400;17.982;2023-03-16T03:36:52;8.38;;;1.63;;
50363;SDS011;36272;59.400;17.982;2023-03-16T03:41:54;5.30;;;1.98;;
50363;SDS011;36272;59.400;17.982;2023-03-16T03:46:55;4.10;;;1.58;;
50363;SDS011;36272;59.400;17.982;2023-03-16T03:51:57;5.88;;;1.60;;
50363;SDS011;36272;59.400;17.982;2023-03-16T03:56:59;2.42;;;1.27;;
50363;SDS011;36272;59.400;17.982;2023-03-16T04:02:01;2.90;;;1.50;;
50363;SDS011;36272;59.400;17.982;2023-03-16T04:07:02;3.88;;;2.10;;
50363;SDS011;36272;59.400;17.982;2023-03-16T04:12:04;6.38;;;1.98;;
50363;SDS011;36272;59.400;17.982;2023-03-16T04:17:06;5.57;;;1.67;;
50363;SDS011;36272;59.400;17.982;2023-03-16T04:22:23;8.13;;;1.90;;
50363;SDS011;36272;59.400;17.982;2023-03-16T04:27:25;3.38;;;1.38;;
50363;SDS011;36272;59.400;17.982;2023-03-16T04:32:26;5.88;;;1.52;;
50363;SDS011;36272;59.400;17.982;2023-03-16T04:37:28;7.13;;;1.70;;
50363;SDS011;36272;59.400;17.982;2023-03-16T04:42:34;4.10;;;1.40;;
50363;SDS011;36272;59.400;17.982;2023-03-16T04:47:36;3.13;;;1.55;;
50363;SDS011;36272;59.400;17.982;2023-03-16T04:52:43;4.82;;;1.40;;
50363;SDS011;36272;59.400;17.982;2023-03-16T04:57:45;2.22;;;1.30;;
50363;SDS011;36272;59.400;17.982;2023-03-16T05:02:47;7.53;;;1.85;;
50363;SDS011;36272;59.400;17.982;2023-03-16T05:07:49;5.63;;;1.85;;
50363;SDS011;36272;59.400;17.982;2023-03-16T05:12:51;1.98;;;1.30;;
50363;SDS011;36272;59.400;17.982;2023-03-16T05:17:53;6.05;;;1.70;;
50363;SDS011;36272;59.400;17.982;2023-03-16T05:22:58;8.32;;;1.50;;
50363;SDS011;36272;59.400;17.982;2023-03-16T05:27:59;5.10;;;1.88;;
50363;SDS011;36272;59.400;17.982;2023-03-16T05:33:02;3.95;;;1.38;;
50363;SDS011;36272;59.400;17.982;2023-03-16T05:38:04;4.90;;;1.75;;
50363;SDS011;36272;59.400;17.982;2023-03-16T05:43:05;4.75;;;1.63;;
50363;SDS011;36272;59.400;17.982;2023-03-16T05:48:12;3.25;;;1.67;;
50363;SDS011;36272;59.400;17.982;2023-03-16T05:53:18;7.55;;;2.20;;
50363;SDS011;36272;59.400;17.982;2023-03-16T05:58:28;5.75;;;1.67;;
50363;SDS011;36272;59.400;17.982;2023-03-16T06:03:33;6.88;;;1.95;;
50363;SDS011;36272;59.400;17.982;2023-03-16T06:08:35;5.65;;;1.73;;
50363;SDS011;36272;59.400;17.982;2023-03-16T06:13:37;6.05;;;1.83;;
50363;SDS011;36272;59.400;17.982;2023-03-16T06:18:39;4.47;;;1.70;;
50363;SDS011;36272;59.400;17.982;2023-03-16T06:23:41;7.70;;;1.98;;
50363;SDS011;36272;59.400;17.982;2023-03-16T06:28:43;5.53;;;3.25;;
50363;SDS011;36272;59.400;17.982;2023-03-16T06:33:48;5.32;;;1.90;;
50363;SDS011;36272;59.400;17.982;2023-03-16T06:38:49;8.38;;;2.00;;
50363;SDS011;36272;59.400;17.982;2023-03-16T06:43:51;6.38;;;2.38;;
50363;SDS011;36272;59.400;17.982;2023-03-16T06:48:53;12.75;;;2.25;;
50363;SDS011;36272;59.400;17.982;2023-03-16T06:53:55;11.48;;;2.63;;
50363;SDS011;36272;59.400;17.982;2023-03-16T06:58:57;7.75;;;2.25;;
50363;SDS011;36272;59.400;17.982;2023-03-16T07:04:01;16.47;;;2.43;;
50363;SDS011;36272;59.400;17.982;2023-03-16T07:09:03;10.77;;;2.53;;
50363;SDS011;36272;59.400;17.982;2023-03-16T07:14:05;7.38;;;2.40;;
50363;SDS011;36272;59.400;17.982;2023-03-16T07:19:07;11.68;;;2.25;;
50363;SDS011;36272;59.400;17.982;2023-03-16T07:24:09;6.03;;;2.00;;
50363;SDS011;36272;59.400;17.982;2023-03-16T07:29:12;6.55;;;2.35;;
50363;SDS011;36272;59.400;17.982;2023-03-16T07:34:17;13.18;;;2.20;;
50363;SDS011;36272;59.400;17.982;2023-03-16T07:39:19;5.50;;;2.20;;
50363;SDS011;36272;59.400;17.982;2023-03-16T07:44:21;9.63;;;2.50;;
50363;SDS011;36272;59.400;17.982;2023-03-16T07:49:23;12.32;;;2.70;;
50363;SDS011;36272;59.400;17.982;2023-03-16T08:00:48;42.80;;;3.83;;
50363;SDS011;36272;59.400;17.982;2023-03-16T08:05:49;8.80;;;2.60;;
50363;SDS011;36272;59.400;17.982;2023-03-16T08:10:52;8.77;;;2.78;;
50363;SDS011;36272;59.400;17.982;2023-03-16T08:15:53;11.02;;;2.78;;
50363;SDS011;36272;59.400;17.982;2023-03-16T08:20:58;6.87;;;2.47;;
50363;SDS011;36272;59.400;17.982;2023-03-16T08:26:00;10.05;;;2.45;;
50363;SDS011;36272;59.400;17.982;2023-03-16T08:31:05;14.07;;;3.03;;
50363;SDS011;36272;59.400;17.982;2023-03-16T08:36:08;11.52;;;2.90;;
50363;SDS011;36272;59.400;17.982;2023-03-16T08:41:12;8.75;;;2.35;;
50363;SDS011;36272;59.400;17.982;2023-03-16T08:46:14;11.07;;;2.65;;
50363;SDS011;36272;59.400;17.982;2023-03-16T08:51:16;16.73;;;3.40;;
50363;SDS011;36272;59.400;17.982;2023-03-16T08:56:17;13.32;;;2.88;;
50363;SDS011;36272;59.400;17.982;2023-03-16T09:01:19;9.68;;;2.90;;
50363;SDS011;36272;59.400;17.982;2023-03-16T09:06:22;9.75;;;2.58;;
50363;SDS011;36272;59.400;17.982;2023-03-16T09:11:24;11.27;;;2.45;;
50363;SDS011;36272;59.400;17.982;2023-03-16T09:16:30;15.88;;;2.60;;
50363;SDS011;36272;59.400;17.982;2023-03-16T09:21:32;19.13;;;3.40;;
50363;SDS011;36272;59.400;17.982;2023-03-16T09:26:36;9.02;;;2.85;;
50363;SDS011;36272;59.400;17.982;2023-03-16T09:31:40;9.88;;;2.25;;
50363;SDS011;36272;59.400;17.982;2023-03-16T09:36:41;13.10;;;2.75;;
50363;SDS011;36272;59.400;17.982;2023-03-16T09:41:52;13.55;;;3.10;;
50363;SDS011;36272;59.400;17.982;2023-03-16T09:47:03;23.55;;;6.47;;
50363;SDS011;36272;59.400;17.982;2023-03-16T09:57:46;9.02;;;2.47;;
50363;SDS011;36272;59.400;17.982;2023-03-16T10:02:55;8.68;;;2.60;;
50363;SDS011;36272;59.400;17.982;2023-03-16T10:13:15;13.48;;;2.92;;
50363;SDS011;36272;59.400;17.982;2023-03-16T10:18:55;17.35;;;3.00;;
50363;SDS011;36272;59.400;17.982;2023-03-16T10:24:01;9.63;;;2.70;;
50363;SDS011;36272;59.400;17.982;2023-03-16T10:29:10;8.63;;;2.28;;
50363;SDS011;36272;59.400;17.982;2023-03-16T10:34:13;23.48;;;3.83;;
50363;SDS011;36272;59.400;17.982;2023-03-16T10:39:15;7.57;;;2.50;;
50363;SDS011;36272;59.400;17.982;2023-03-16T10:44:25;9.23;;;2.45;;
50363;SDS011;36272;59.400;17.982;2023-03-16T11:00:06;10.35;;;2.55;;
50363;SDS011;36272;59.400;17.982;2023-03-16T11:10:34;17.50;;;3.55;;
50363;SDS011;36272;59.400;17.982;2023-03-16T11:15:39;8.82;;;2.88;;
50363;SDS011;36272;59.400;17.982;2023-03-16T11:20:43;8.87;;;2.60;;
50363;SDS011;36272;59.400;17.982;2023-03-16T11:25:47;15.23;;;3.25;;
50363;SDS011;36272;59.400;17.982;2023-03-16T11:52:42;12.68;;;3.05;;
50363;SDS011;36272;59.400;17.982;2023-03-16T12:15:53;11.90;;;3.50;;
50363;SDS011;36272;59.400;17.982;2023-03-16T12:40:31;8.93;;;2.63;;
50363;SDS011;36272;59.400;17.982;2023-03-16T12:50:47;15.30;;;2.80;;
50363;SDS011;36272;59.400;17.982;2023-03-16T12:55:53;11.80;;;2.78;;
50363;SDS011;36272;59.400;17.982;2023-03-16T13:00:57;10.68;;;2.72;;
50363;SDS011;36272;59.400;17.982;2023-03-16T13:06:00;9.73;;;2.45;;
50363;SDS011;36272;59.400;17.982;2023-03-16T13:11:07;15.65;;;2.75;;
50363;SDS011;36272;59.400;17.982;2023-03-16T13:16:21;8.60;;;2.90;;
50363;SDS011;36272;59.400;17.982;2023-03-16T13:21:38;13.07;;;2.90;;
50363;SDS011;36272;59.400;17.982;2023-03-16T13:26:45;7.63;;;2.42;;
50363;SDS011;36272;59.400;17.982;2023-03-16T13:31:49;10.13;;;2.60;;
50363;SDS011;36272;59.400;17.982;2023-03-16T13:36:53;10.35;;;2.28;;
50363;SDS011;36272;59.400;17.982;2023-03-16T13:47:03;8.27;;;2.22;;
50363;SDS011;36272;59.400;17.982;2023-03-16T13:52:10;12.98;;;2.40;;
50363;SDS011;36272;59.400;17.982;2023-03-16T13:57:15;5.72;;;2.00;;
50363;SDS011;36272;59.400;17.982;2023-03-16T14:02:25;8.05;;;2.45;;
50363;SDS011;36272;59.400;17.982;2023-03-16T14:07:27;8.95;;;2.25;;
50363;SDS011;36272;59.400;17.982;2023-03-16T14:12:28;9.38;;;2.22;;
50363;SDS011;36272;59.400;17.982;2023-03-16T14:17:30;9.80;;;2.40;;
50363;SDS011;36272;59.400;17.982;2023-03-16T14:22:36;5.88;;;2.10;;
50363;SDS011;36272;59.400;17.982;2023-03-16T14:32:40;9.85;;;2.00;;
50363;SDS011;36272;59.400;17.982;2023-03-16T14:37:42;9.13;;;1.85;;
50363;SDS011;36272;59.400;17.982;2023-03-16T14:42:45;8.90;;;1.75;;
50363;SDS011;36272;59.400;17.982;2023-03-16T14:47:47;8.82;;;1.67;;
50363;SDS011;36272;59.400;17.982;2023-03-16T14:52:51;6.25;;;1.88;;
50363;SDS011;36272;59.400;17.982;2023-03-16T14:58:00;5.72;;;1.80;;
50363;SDS011;36272;59.400;17.982;2023-03-16T15:03:03;11.20;;;2.20;;
50363;SDS011;36272;59.400;17.982;2023-03-16T15:13:47;10.18;;;1.85;;
50363;SDS011;36272;59.400;17.982;2023-03-16T15:18:49;12.15;;;2.38;;
50363;SDS011;36272;59.400;17.982;2023-03-16T15:23:52;6.40;;;1.95;;
50363;SDS011;36272;59.400;17.982;2023-03-16T15:28:54;9.48;;;1.95;;
50363;SDS011;36272;59.400;17.982;2023-03-16T15:33:57;21.17;;;2.75;;
50363;SDS011;36272;59.400;17.982;2023-03-16T15:39:23;11.25;;;2.08;;
50363;SDS011;36272;59.400;17.982;2023-03-16T15:44:25;10.60;;;2.38;;
50363;SDS011;36272;59.400;17.982;2023-03-16T15:49:27;13.30;;;2.35;;
50363;SDS011;36272;59.400;17.982;2023-03-16T15:54:28;52.63;;;4.25;;
50363;SDS011;36272;59.400;17.982;2023-03-16T15:59:33;12.23;;;2.70;;
50363;SDS011;36272;59.400;17.982;2023-03-16T16:04:38;12.95;;;2.38;;
50363;SDS011;36272;59.400;17.982;2023-03-16T16:09:51;20.60;;;2.85;;
50363;SDS011;36272;59.400;17.982;2023-03-16T16:27:29;15.32;;;2.50;;
50363;SDS011;36272;59.400;17.982;2023-03-16T16:32:31;32.72;;;3.72;;
50363;SDS011;36272;59.400;17.982;2023-03-16T16:37:32;65.85;;;6.10;;
50363;SDS011;36272;59.400;17.982;2023-03-16T16:42:38;53.13;;;5.47;;
50363;SDS011;36272;59.400;17.982;2023-03-16T16:53:08;57.00;;;5.97;;
50363;SDS011;36272;59.400;17.982;2023-03-16T16:58:26;48.80;;;6.20;;
50363;SDS011;36272;59.400;17.982;2023-03-16T17:14:46;68.32;;;6.88;;
50363;SDS011;36272;59.400;17.982;2023-03-16T17:19:53;69.18;;;6.60;;
50363;SDS011;36272;59.400;17.982;2023-03-16T17:24:57;56.90;;;6.40;;
50363;SDS011;36272;59.400;17.982;2023-03-16T17:35:53;77.95;;;7.80;;
50363;SDS011;36272;59.400;17.982;2023-03-16T17:46:36;84.50;;;8.35;;
50363;SDS011;36272;59.400;17.982;2023-03-16T17:51:40;70.55;;;8.00;;
50363;SDS011;36272;59.400;17.982;2023-03-16T17:56:44;54.13;;;6.03;;
50363;SDS011;36272;59.400;17.982;2023-03-16T18:02:02;53.67;;;6.03;;
50363;SDS011;36272;59.400;17.982;2023-03-16T18:07:22;42.85;;;5.65;;
50363;SDS011;36272;59.400;17.982;2023-03-16T18:12:30;49.30;;;6.03;;
50363;SDS011;36272;59.400;17.982;2023-03-16T18:29:31;133.80;;;9.48;;
50363;SDS011;36272;59.400;17.982;2023-03-16T18:34:36;99.75;;;10.70;;
50363;SDS011;36272;59.400;17.982;2023-03-16T18:52:46;65.15;;;6.43;;
50363;SDS011;36272;59.400;17.982;2023-03-16T18:57:55;62.80;;;6.50;;
50363;SDS011;36272;59.400;17.982;2023-03-16T19:03:02;68.45;;;5.85;;
50363;SDS011;36272;59.400;17.982;2023-03-16T19:08:10;63.25;;;6.88;;
50363;SDS011;36272;59.400;17.982;2023-03-16T19:13:17;62.90;;;5.95;;
50363;SDS011;36272;59.400;17.982;2023-03-16T19:18:21;81.95;;;6.97;;
50363;SDS011;36272;59.400;17.982;2023-03-16T19:23:27;58.10;;;6.75;;
50363;SDS011;36272;59.400;17.982;2023-03-16T19:28:33;61.63;;;6.13;;
50363;SDS011;36272;59.400;17.982;2023-03-16T19:33:39;98.00;;;8.40;;
50363;SDS011;36272;59.400;17.982;2023-03-16T19:38:57;74.55;;;7.05;;
50363;SDS011;36272;59.400;17.982;2023-03-16T19:44:01;48.60;;;5.97;;
50363;SDS011;36272;59.400;17.982;2023-03-16T19:50:13;64.80;;;5.90;;
50363;SDS011;36272;59.400;17.982;2023-03-16T19:55:17;71.97;;;6.70;;
50363;SDS011;36272;59.400;17.982;2023-03-16T20:00:22;44.85;;;7.28;;
50363;SDS011;36272;59.400;17.982;2023-03-16T20:05:27;41.00;;;5.13;;
50363;SDS011;36272;59.400;17.982;2023-03-16T20:10:30;36.40;;;4.95;;
50363;SDS011;36272;59.400;17.982;2023-03-16T20:15:32;37.63;;;4.53;;
50363;SDS011;36272;59.400;17.982;2023-03-16T20:20:41;32.20;;;4.20;;
50363;SDS011;36272;59.400;17.982;2023-03-16T20:25:44;33.70;;;3.95;;
50363;SDS011;36272;59.400;17.982;2023-03-16T20:30:47;40.67;;;4.90;;
50363;SDS011;36272;59.400;17.982;2023-03-16T20:57:39;31.27;;;5.18;;
50363;SDS011;36272;59.400;17.982;2023-03-16T21:02:43;32.75;;;4.90;;
50363;SDS011;36272;59.400;17.982;2023-03-16T21:07:46;32.08;;;4.95;;
50363;SDS011;36272;59.400;17.982;2023-03-16T21:12:50;27.13;;;4.55;;
50363;SDS011;36272;59.400;17.982;2023-03-16T21:23:57;21.58;;;4.45;;
50363;SDS011;36272;59.400;17.982;2023-03-16T21:29:01;35.88;;;5.40;;
50363;SDS011;36272;59.400;17.982;2023-03-16T21:34:11;37.78;;;5.22;;
50363;SDS011;36272;59.400;17.982;2023-03-16T21:39:44;30.02;;;5.05;;
50363;SDS011;36272;59.400;17.982;2023-03-16T21:44:50;32.15;;;5.07;;
50363;SDS011;36272;59.400;17.982;2023-03-16T21:49:58;29.17;;;4.72;;
50363;SDS011;36272;59.400;17.982;2023-03-16T21:55:04;20.10;;;5.30;;
50363;SDS011;36272;59.400;17.982;2023-03-16T22:00:17;24.80;;;4.57;;
50363;SDS011;36272;59.400;17.982;2023-03-16T22:10:36;35.90;;;4.78;;
50363;SDS011;36272;59.400;17.982;2023-03-16T22:15:45;26.33;;;5.53;;
50363;SDS011;36272;59.400;17.982;2023-03-16T22:20:48;43.63;;;5.43;;
50363;SDS011;36272;59.400;17.982;2023-03-16T22:25:50;27.00;;;5.60;;
50363;SDS011;36272;59.400;17.982;2023-03-16T22:30:52;33.95;;;5.88;;
50363;SDS011;36272;59.400;17.982;2023-03-16T22:36:06;22.97;;;4.93;;
50363;SDS011;36272;59.400;17.982;2023-03-16T22:41:15;26.35;;;5.45;;
50363;SDS011;36272;59.400;17.982;2023-03-16T22:46:19;23.08;;;4.95;;
50363;SDS011;36272;59.400;17.982;2023-03-16T22:51:27;25.83;;;5.28;;
50363;SDS011;36272;59.400;17.982;2023-03-16T22:56:32;19.98;;;5.10;;
50363;SDS011;36272;59.400;17.982;2023-03-16T23:01:39;20.20;;;5.13;;
50363;SDS011;36272;59.400;17.982;2023-03-16T23:06:43;25.73;;;4.70;;
50363;SDS011;36272;59.400;17.982;2023-03-16T23:11:47;29.83;;;5.72;;
50363;SDS011;36272;59.400;17.982;2023-03-16T23:16:51;16.47;;;5.23;;
50363;SDS011;36272;59.400;17.982;2023-03-16T23:21:55;15.85;;;4.65;;
50363;SDS011;36272;59.400;17.982;2023-03-16T23:27:00;21.88;;;4.60;;
50363;SDS011;36272;59.400;17.982;2023-03-16T23:32:05;20.40;;;4.63;;
50363;SDS011;36272;59.400;17.982;2023-03-16T23:37:07;27.00;;;5.13;;
50363;SDS011;36272;59.400;17.982;2023-03-16T23:42:09;20.60;;;4.38;;
50363;SDS011;36272;59.400;17.982;2023-03-16T23:47:11;13.65;;;3.80;;
50363;SDS011;36272;59.400;17.982;2023-03-16T23:52:13;16.45;;;3.78;;
50363;SDS011;36272;59.400;17.982;2023-03-16T23:57:14;14.27;;;3.55;;
